Time;durP1;ratioP1;P1;durP2;ratioP2;P2;SDS_P1;SDS_P2;PMS_P1;PMS_P2;Temp;Humidity;BMP_temperature;BMP_pressure;BME280_temperature;BME280_humidity;BME280_pressure;Samples;Min_cycle;Max_cycle;Signal;HPM_P1;HPM_P2
2023/05/23 00:01:17;;;;;;;45.08;27.33;;;15.00;99.90;;;;;;6225681;23;20024;-85
2023/05/23 00:04:07;;;;;;;43.50;27.00;;;15.00;99.90;;;;;;6226881;23;20048;-85
2023/05/23 00:06:56;;;;;;;39.22;27.52;;;15.00;99.00;;;;;;6231688;22;20034;-85
2023/05/23 00:09:48;;;;;;;37.80;26.70;;;15.10;99.90;;;;;;6232192;23;20051;-86
2023/05/23 00:12:41;;;;;;;43.53;28.77;;;15.10;99.90;;;;;;6223793;23;20024;-86
2023/05/23 00:15:29;;;;;;;44.90;30.40;;;15.10;1.00;;;;;;6226740;23;20243;-85
2023/05/23 00:18:20;;;;;;;44.28;31.75;;;15.10;99.90;;;;;;6224465;23;20020;-84
2023/05/23 00:21:14;;;;;;;52.55;32.20;;;15.10;1.00;;;;;;6228425;23;20030;-84
2023/05/23 00:24:03;;;;;;;53.05;33.42;;;15.20;1.00;;;;;;6227304;23;20065;-85
2023/05/23 00:26:50;;;;;;;61.20;35.38;;;15.20;99.90;;;;;;6225900;23;20024;-84
2023/05/23 00:29:38;;;;;;;67.47;39.85;;;15.20;1.00;;;;;;6227168;22;20028;-84
2023/05/23 00:32:26;;;;;;;69.55;40.58;;;15.20;99.90;;;;;;6226283;23;20028;-85
2023/05/23 00:35:16;;;;;;;86.85;47.08;;;15.20;1.00;;;;;;6228443;22;20086;-84
2023/05/23 00:38:06;;;;;;;87.55;47.15;;;15.10;1.00;;;;;;6227503;23;20042;-85
2023/05/23 00:41:02;;;;;;;83.88;47.70;;;15.10;99.90;;;;;;6230015;23;20031;-85
2023/05/23 00:43:49;;;;;;;90.53;47.33;;;15.10;99.90;;;;;;6205487;23;20030;-85
2023/05/23 00:46:37;;;;;;;95.40;50.17;;;15.00;99.90;;;;;;6223722;23;20035;-85
2023/05/23 00:49:26;;;;;;;94.45;50.95;;;15.00;99.90;;;;;;6226073;23;20416;-86
2023/05/23 00:52:17;;;;;;;103.05;54.83;;;15.00;99.90;;;;;;6223104;23;20105;-84
2023/05/23 00:55:07;;;;;;;107.78;56.30;;;15.00;99.90;;;;;;6223429;23;20056;-85
2023/05/23 00:58:06;;;;;;;113.35;57.50;;;15.10;99.90;;;;;;6224557;23;20039;-85
2023/05/23 01:01:10;;;;;;;109.70;56.90;;;15.20;99.90;;;;;;6228875;23;20039;-85
2023/05/23 01:04:01;;;;;;;111.40;57.33;;;15.20;99.90;;;;;;6224003;23;20028;-85
2023/05/23 01:06:54;;;;;;;112.88;57.15;;;15.10;99.90;;;;;;6245435;23;20190;-83
2023/05/23 01:09:42;;;;;;;113.70;59.92;;;15.10;99.90;;;;;;6222740;23;20031;-85
2023/05/23 01:12:51;;;;;;;124.50;62.28;;;15.00;99.90;;;;;;6224926;23;20131;-84
2023/05/23 01:15:45;;;;;;;135.82;63.92;;;14.90;99.90;;;;;;6224312;23;20024;-83
2023/05/23 01:18:57;;;;;;;119.97;61.75;;;14.90;99.90;;;;;;6223430;23;20305;-85
2023/05/23 01:22:20;;;;;;;152.55;70.05;;;14.70;99.90;;;;;;6229857;23;20444;-86
2023/05/23 01:25:32;;;;;;;139.23;67.93;;;14.70;99.90;;;;;;6223160;23;20024;-84
2023/05/23 01:28:25;;;;;;;150.63;69.90;;;14.70;99.90;;;;;;6223344;23;20103;-86
2023/05/23 01:31:16;;;;;;;154.20;73.88;;;14.70;99.90;;;;;;6221846;23;20031;-87
2023/05/23 01:34:04;;;;;;;145.32;71.22;;;14.70;99.90;;;;;;6224710;23;20028;-86
2023/05/23 01:36:55;;;;;;;154.57;72.70;;;14.80;99.90;;;;;;6222760;23;20114;-86
2023/05/23 01:39:42;;;;;;;152.60;72.63;;;14.80;99.90;;;;;;6225807;23;20028;-84
2023/05/23 01:42:30;;;;;;;153.90;71.07;;;14.90;99.90;;;;;;6223614;23;20024;-83
2023/05/23 01:45:18;;;;;;;142.25;69.95;;;14.90;99.90;;;;;;6224948;23;20710;-84
2023/05/23 01:48:06;;;;;;;155.90;72.30;;;15.00;99.90;;;;;;6221831;23;20087;-86
2023/05/23 01:50:55;;;;;;;152.65;73.70;;;15.00;99.90;;;;;;6222500;23;20020;-85
2023/05/23 01:53:46;;;;;;;155.50;76.78;;;15.00;99.90;;;;;;6222993;23;20032;-84
2023/05/23 01:56:34;;;;;;;153.57;75.07;;;15.00;99.90;;;;;;6225317;23;20024;-85
2023/05/23 01:59:25;;;;;;;147.63;76.57;;;15.00;99.90;;;;;;6225329;23;20150;-85
2023/05/23 02:02:12;;;;;;;151.73;76.95;;;15.10;99.90;;;;;;6226230;23;20123;-84
2023/05/23 02:05:00;;;;;;;146.98;76.43;;;15.10;99.90;;;;;;6243608;23;20303;-84
2023/05/23 02:07:48;;;;;;;154.15;76.47;;;15.10;99.90;;;;;;6225497;23;20051;-85
2023/05/23 02:10:48;;;;;;;156.20;79.25;;;15.10;99.90;;;;;;6222366;23;20020;-84
2023/05/23 02:13:44;;;;;;;162.65;78.47;;;15.10;99.90;;;;;;6223135;23;20095;-85
2023/05/23 02:16:32;;;;;;;157.52;78.53;;;15.10;99.90;;;;;;6223923;23;20051;-84
2023/05/23 02:19:20;;;;;;;164.38;80.88;;;15.20;99.90;;;;;;6224936;23;20032;-85
2023/05/23 02:22:12;;;;;;;155.03;77.67;;;15.20;99.90;;;;;;6224838;23;20095;-86
2023/05/23 02:25:03;;;;;;;167.98;84.68;;;15.20;99.90;;;;;;6225388;23;20055;-85
2023/05/23 02:27:51;;;;;;;163.48;83.55;;;15.20;99.90;;;;;;6244928;23;20024;-85
2023/05/23 02:30:41;;;;;;;164.50;82.78;;;15.10;99.90;;;;;;6225301;23;20024;-85
2023/05/23 02:33:32;;;;;;;159.18;83.72;;;15.10;99.90;;;;;;6223644;23;20039;-84
2023/05/23 02:36:19;;;;;;;167.52;84.97;;;15.10;99.90;;;;;;6224147;23;20031;-85
2023/05/23 02:39:06;;;;;;;167.77;83.32;;;15.10;99.90;;;;;;6225400;23;20024;-85
2023/05/23 02:41:56;;;;;;;175.55;86.43;;;15.00;99.90;;;;;;6245414;23;20039;-85
2023/05/23 02:44:53;;;;;;;176.32;86.38;;;14.90;99.90;;;;;;6225691;23;20085;-85
2023/05/23 02:47:40;;;;;;;159.63;84.30;;;14.90;99.90;;;;;;6226407;23;20054;-86
2023/05/23 02:50:36;;;;;;;173.40;87.75;;;14.90;99.90;;;;;;6230193;22;20032;-85
2023/05/23 02:53:27;;;;;;;171.48;86.43;;;14.90;99.90;;;;;;6227738;23;20020;-86
2023/05/23 02:56:14;;;;;;;179.82;90.03;;;14.90;99.90;;;;;;6223952;23;20024;-84
2023/05/23 02:59:02;;;;;;;170.38;87.82;;;14.80;99.90;;;;;;6224960;23;20399;-84
2023/05/23 03:01:52;;;;;;;178.05;89.43;;;14.80;99.90;;;;;;6223739;23;20024;-84
2023/05/23 03:04:40;;;;;;;188.15;91.10;;;14.80;99.90;;;;;;6222672;23;20028;-85
2023/05/23 03:07:29;;;;;;;182.88;90.97;;;14.80;99.90;;;;;;6226375;22;20043;-85
2023/05/23 03:10:16;;;;;;;177.95;89.00;;;14.80;99.90;;;;;;6225063;23;20024;-84
2023/05/23 03:13:04;;;;;;;180.48;91.22;;;14.80;99.90;;;;;;6222810;23;20046;-86
2023/05/23 03:15:54;;;;;;;180.07;92.97;;;14.90;99.90;;;;;;6224621;23;20031;-84
2023/05/23 03:18:41;;;;;;;188.07;93.82;;;14.90;99.90;;;;;;6222779;23;20024;-86
2023/05/23 03:21:37;;;;;;;188.20;92.57;;;14.90;99.90;;;;;;6222272;23;20063;-87
2023/05/23 03:24:25;;;;;;;168.40;87.72;;;14.90;99.90;;;;;;6222718;23;20036;-85
2023/05/23 03:27:12;;;;;;;183.27;92.10;;;14.90;99.90;;;;;;6221862;23;20020;-84
2023/05/23 03:30:03;;;;;;;180.38;91.82;;;14.90;99.90;;;;;;6226027;22;20443;-84
2023/05/23 03:32:52;;;;;;;167.68;89.03;;;14.90;99.90;;;;;;6222555;23;20446;-86
2023/05/23 03:35:39;;;;;;;169.20;87.70;;;15.00;99.90;;;;;;6245878;23;20312;-85
2023/05/23 03:38:29;;;;;;;157.52;85.97;;;15.00;99.90;;;;;;6222658;23;20028;-86
2023/05/23 03:41:27;;;;;;;164.77;87.15;;;15.10;99.90;;;;;;6224842;23;20028;-84
2023/05/23 03:44:16;;;;;;;162.75;86.35;;;15.10;99.90;;;;;;6243983;23;20024;-84
2023/05/23 03:47:06;;;;;;;164.10;85.80;;;15.10;99.90;;;;;;6224388;23;20035;-85
2023/05/23 03:49:56;;;;;;;155.98;82.03;;;15.20;99.90;;;;;;6225057;23;20146;-85
2023/05/23 03:52:43;;;;;;;143.90;78.43;;;15.20;99.90;;;;;;6225206;22;20024;-84
2023/05/23 03:55:31;;;;;;;145.02;81.85;;;15.30;99.90;;;;;;6225272;22;20043;-84
2023/05/23 03:58:21;;;;;;;149.85;80.63;;;15.30;99.90;;;;;;6225114;23;20036;-87
2023/05/23 04:01:53;;;;;;;141.35;77.25;;;15.30;99.90;;;;;;6223983;23;20446;-86
2023/05/23 04:05:22;;;;;;;143.32;78.78;;;15.30;99.90;;;;;;6035041;23;20023;-85
2023/05/23 04:08:23;;;;;;;140.70;75.65;;;15.40;99.90;;;;;;6043952;23;20030;-85
2023/05/23 04:11:10;;;;;;;133.40;76.10;;;15.30;99.90;;;;;;6073738;23;20031;-84
2023/05/23 04:13:57;;;;;;;139.80;78.28;;;15.30;99.90;;;;;;6075690;23;20037;-86
2023/05/23 04:16:47;;;;;;;135.85;75.45;;;15.30;99.90;;;;;;6095786;23;20026;-85
2023/05/23 04:19:34;;;;;;;128.18;74.20;;;15.40;99.90;;;;;;6075991;23;20034;-85
2023/05/23 04:22:22;;;;;;;132.35;73.75;;;15.40;99.90;;;;;;6076033;23;20330;-84
2023/05/23 04:25:09;;;;;;;130.40;71.32;;;15.40;99.90;;;;;;6075449;23;20162;-86
2023/05/23 04:27:58;;;;;;;128.50;73.18;;;15.40;99.90;;;;;;6075609;23;20036;-85
2023/05/23 04:30:48;;;;;;;119.70;70.72;;;15.50;99.90;;;;;;6075520;23;20023;-87
2023/05/23 04:33:37;;;;;;;116.45;71.97;;;15.50;99.90;;;;;;6077790;23;20027;-86
2023/05/23 04:36:25;;;;;;;123.13;71.70;;;15.50;99.90;;;;;;6077378;23;20117;-87
2023/05/23 04:39:15;;;;;;;122.10;68.97;;;15.40;99.90;;;;;;6056245;23;20027;-87
2023/05/23 04:42:06;;;;;;;115.78;72.60;;;15.50;99.90;;;;;;6182841;23;20039;-86
2023/05/23 04:44:56;;;;;;;117.75;72.65;;;15.50;99.90;;;;;;6229761;23;20435;-87
2023/05/23 04:47:43;;;;;;;120.88;73.57;;;15.50;99.90;;;;;;6224842;23;20310;-88
2023/05/23 04:50:33;;;;;;;114.72;72.22;;;15.50;99.90;;;;;;6226573;23;20020;-88
2023/05/23 04:53:22;;;;;;;112.90;70.03;;;15.50;99.90;;;;;;6226939;23;20035;-86
2023/05/23 04:56:16;;;;;;;122.30;71.00;;;15.50;99.90;;;;;;6224327;23;20031;-90
2023/05/23 04:59:10;;;;;;;112.45;70.40;;;15.50;99.90;;;;;;6225492;23;20039;-89
2023/05/23 05:01:58;;;;;;;117.60;70.32;;;15.50;99.90;;;;;;6227459;23;20028;-89
2023/05/23 05:04:46;;;;;;;113.15;70.57;;;15.50;99.90;;;;;;6227036;23;20675;-91
2023/05/23 05:07:37;;;;;;;108.50;68.00;;;15.40;99.90;;;;;;6227596;23;20024;-87
2023/05/23 05:10:25;;;;;;;112.60;72.13;;;15.50;99.90;;;;;;6230589;23;20016;-88
2023/05/23 05:13:14;;;;;;;114.45;72.20;;;15.50;99.90;;;;;;6227712;23;20379;-90
2023/05/23 05:17:01;;;;;;;117.43;72.15;;;15.50;99.90;;;;;;6227899;23;20436;-90
2023/05/23 05:24:11;;;;;;;109.50;71.70;;;15.60;99.90;;;;;;6223460;23;20020;-89
2023/05/23 05:27:01;;;;;;;112.13;74.32;;;15.60;99.90;;;;;;6238201;22;20048;-89
2023/05/23 05:29:48;;;;;;;110.65;73.65;;;15.60;99.90;;;;;;6234297;23;20024;-90
2023/05/23 05:32:38;;;;;;;110.13;75.53;;;15.60;99.90;;;;;;6229074;23;20020;-89
2023/05/23 05:35:36;;;;;;;;;;;;;;;;;;;;;
2023/05/23 05:44:11;;;;;;;110.80;73.05;;;15.70;99.90;;;;;;6245415;22;20016;-81
2023/05/23 05:46:58;;;;;;;109.15;72.20;;;15.70;99.90;;;;;;6244194;23;20094;-80
2023/05/23 05:49:45;;;;;;;108.50;72.85;;;15.70;99.90;;;;;;6247476;22;20024;-80
2023/05/23 05:52:55;;;;;;;110.55;73.25;;;15.70;1.00;;;;;;6280138;22;20024;-89
2023/05/23 05:56:42;;;;;;;;;;;;;;;;;;;;;
2023/05/23 06:08:14;;;;;;;103.65;69.05;;;15.70;99.90;;;;;;6112694;23;20393;-88
2023/05/23 06:27:27;;;;;;;89.53;62.33;;;16.20;1.00;;;;;;6153925;23;20080;-87
2023/05/23 06:31:14;;;;;;;88.93;62.10;;;16.30;99.90;;;;;;6153598;23;20151;-87
2023/05/23 06:34:38;;;;;;;86.07;60.85;;;16.30;99.90;;;;;;6023999;23;20039;-87
2023/05/23 07:03:42;;;;;;;;;;;;;;;;;;;;;
2023/05/23 07:11:10;;;;;;;64.35;49.10;;;16.90;99.90;;;;;;5846261;24;20097;-86
2023/05/23 07:14:31;;;;;;;62.47;48.55;;;16.70;70.10;;;;;;5828527;24;20717;-89
2023/05/23 07:17:32;;;;;;;63.85;49.55;;;16.50;90.70;;;;;;5850884;23;20391;-87
2023/05/23 07:20:48;;;;;;;69.47;49.72;;;16.40;99.90;;;;;;5902134;23;20028;-87
2023/05/23 07:23:54;;;;;;;68.78;49.53;;;16.20;99.90;;;;;;6009262;23;20118;-85
2023/05/23 07:27:41;;;;;;;;;;;;;;;;;;;;;
2023/05/23 07:31:41;;;;;;;;;;;;;;;;;;;;;
2023/05/23 07:34:48;;;;;;;65.53;49.25;;;15.90;99.90;;;;;;6212100;23;20024;-86
2023/05/23 07:37:49;;;;;;;65.67;47.90;;;15.80;99.90;;;;;;6194495;23;20031;-86
2023/05/23 07:40:40;;;;;;;70.43;49.28;;;15.70;1.00;;;;;;6194585;23;20033;-87
2023/05/23 07:44:13;;;;;;;71.93;51.83;;;15.60;99.90;;;;;;6214210;23;20036;-88
2023/05/23 07:47:23;;;;;;;70.55;51.72;;;15.60;1.00;;;;;;6197422;23;20445;-85
2023/05/23 07:50:36;;;;;;;69.10;51.28;;;15.50;1.00;;;;;;6108062;23;20069;-87
2023/05/23 07:53:41;;;;;;;73.07;50.58;;;15.50;1.00;;;;;;6171890;23;20068;-89
2023/05/23 08:20:51;;;;;;;53.25;41.22;;;16.50;99.90;;;;;;6108418;23;20053;-87
2023/05/23 08:24:06;;;;;;;50.17;40.55;;;16.60;99.90;;;;;;6104459;23;20057;-88
2023/05/23 08:31:06;;;;;;;52.17;39.53;;;16.50;41.50;;;;;;6053301;23;20417;-87
2023/05/23 08:34:12;;;;;;;42.47;35.58;;;16.70;21.50;;;;;;6094300;23;20026;-86
2023/05/23 08:37:03;;;;;;;48.17;36.05;;;16.90;1.00;;;;;;6153246;23;20028;-84
2023/05/23 08:40:00;;;;;;;45.65;34.05;;;16.80;1.00;;;;;;6221153;23;20032;-82
2023/05/23 08:42:53;;;;;;;46.30;34.78;;;16.90;1.00;;;;;;6223590;23;20024;-86
2023/05/23 08:45:45;;;;;;;43.30;34.30;;;16.80;1.00;;;;;;6223086;23;20127;-85
2023/05/23 08:48:53;;;;;;;45.65;32.60;;;16.80;1.00;;;;;;6227603;23;20024;-85
2023/05/23 08:52:02;;;;;;;40.75;31.40;;;16.60;1.00;;;;;;6225270;22;20024;-85
2023/05/23 08:55:06;;;;;;;41.00;30.02;;;16.50;1.00;;;;;;6221860;23;20032;-85
2023/05/23 08:58:53;;;;;;;;;;;;;;;;;;;;;
2023/05/23 09:02:24;;;;;;;38.92;29.80;;;16.50;99.90;;;;;;6119230;23;20030;-85
2023/05/23 09:05:20;;;;;;;34.15;28.25;;;16.80;99.90;;;;;;6120153;23;20040;-85
2023/05/23 09:08:14;;;;;;;32.97;27.30;;;17.20;99.90;;;;;;6120263;23;20040;-85
2023/05/23 09:11:47;;;;;;;36.97;26.33;;;17.70;99.90;;;;;;6123223;23;20030;-87
2023/05/23 09:14:55;;;;;;;;;;;;;;;;;;;;;
2023/05/23 09:18:04;;;;;;;32.35;25.05;;;17.90;99.90;;;;;;6138816;23;20048;-85
2023/05/23 09:50:32;;;;;;;;;;;;;;;;;;;;;
2023/05/23 10:02:57;;;;;;;;;;;;;;;;;;;;;
2023/05/23 10:06:21;;;;;;;24.92;17.48;;;19.20;1.00;;;;;;6123901;23;20030;-84
2023/05/23 10:09:38;;;;;;;25.63;18.10;;;19.60;1.00;;;;;;6107851;23;20029;-84
2023/05/23 10:12:50;;;;;;;;;;;;;;;;;;;;;
2023/05/23 10:16:48;;;;;;;20.85;16.38;;;19.50;1.00;;;;;;6240817;23;20243;-85
2023/05/23 10:20:46;;;;;;;18.77;16.48;;;19.10;1.00;;;;;;6189862;23;20020;-86
2023/05/23 10:23:50;;;;;;;19.05;15.40;;;18.80;1.00;;;;;;6143265;23;20311;-85
2023/05/23 10:26:39;;;;;;;18.73;15.15;;;18.80;1.00;;;;;;6220204;23;20024;-85
2023/05/23 10:33:58;;;;;;;18.23;14.75;;;19.40;1.00;;;;;;6119859;23;20026;-87
2023/05/23 10:37:25;;;;;;;21.80;14.20;;;19.50;1.00;;;;;;6104542;23;20044;-86
2023/05/23 10:40:36;;;;;;;17.58;14.32;;;19.60;1.00;;;;;;6122159;23;20030;-84
2023/05/23 10:44:11;;;;;;;17.58;13.98;;;19.80;99.90;;;;;;6123311;23;20120;-91
2023/05/23 10:47:38;;;;;;;;;;;;;;;;;;;;;
2023/05/23 10:55:32;;;;;;;20.58;13.98;;;20.70;99.90;;;;;;6243121;23;20391;-84
2023/05/23 10:58:31;;;;;;;16.92;12.63;;;20.60;99.90;;;;;;6226460;23;20103;-82
2023/05/23 11:01:20;;;;;;;17.15;13.15;;;20.40;99.90;;;;;;6242074;23;20461;-83
2023/05/23 11:04:11;;;;;;;15.63;11.93;;;20.60;99.90;;;;;;6243696;23;20099;-82
2023/05/23 11:06:58;;;;;;;12.32;10.90;;;20.60;99.90;;;;;;6223089;23;20055;-83
2023/05/23 11:10:10;;;;;;;14.07;10.77;;;20.80;99.90;;;;;;6224918;22;20031;-81
2023/05/23 11:13:17;;;;;;;13.45;9.85;;;20.90;99.90;;;;;;6222045;23;20083;-83
2023/05/23 11:16:45;;;;;;;12.73;10.93;;;21.20;99.90;;;;;;6242870;23;20094;-84
2023/05/23 11:19:32;;;;;;;12.88;11.27;;;21.50;99.90;;;;;;6245002;22;20090;-83
2023/05/23 11:25:59;;;;;;;12.27;10.98;;;21.90;99.90;;;;;;6246674;23;20105;-82
2023/05/23 11:28:57;;;;;;;15.05;11.30;;;22.70;99.90;;;;;;6228037;23;20038;-86
2023/05/23 11:31:45;;;;;;;11.85;10.40;;;23.20;99.90;;;;;;6248552;23;20034;-85
2023/05/23 11:34:43;;;;;;;12.55;11.20;;;22.70;99.90;;;;;;6225786;23;20034;-84
2023/05/23 11:38:12;;;;;;;16.00;12.80;;;22.00;99.90;;;;;;6221946;23;20066;-83
2023/05/23 11:40:59;;;;;;;16.10;12.70;;;21.90;99.90;;;;;;6224430;23;20038;-85
2023/05/23 11:43:58;;;;;;;13.90;12.05;;;21.90;99.90;;;;;;6246524;23;20158;-84
2023/05/23 11:47:05;;;;;;;15.00;11.40;;;22.30;99.90;;;;;;6225778;23;20024;-83
2023/05/23 11:50:09;;;;;;;;;;;;;;;;;;;;;
2023/05/23 11:53:24;;;;;;;16.75;11.10;;;22.70;99.90;;;;;;6244869;23;20119;-86
2023/05/23 11:56:41;;;;;;;12.80;11.02;;;22.60;99.90;;;;;;6147351;23;20028;-84
2023/05/23 12:08:30;;;;;;;11.93;7.90;;;26.00;99.90;;;;;;6226514;23;20343;-84
2023/05/23 12:11:39;;;;;;;9.02;7.60;;;26.70;99.90;;;;;;6224139;23;20028;-82
2023/05/23 12:14:43;;;;;;;;;;;;;;;;;;;;;
2023/05/23 12:18:07;;;;;;;10.20;8.25;;;27.40;99.90;;;;;;6247155;23;20035;-87
2023/05/23 12:21:04;;;;;;;;;;;26.50;1.00;;;;;;6250520;22;20039;-87
2023/05/23 12:32:23;;;;;;;9.27;8.13;;;23.50;1.00;;;;;;6155738;23;20017;-85
2023/05/23 12:35:25;;;;;;;8.30;7.50;;;22.60;99.90;;;;;;6134445;23;20021;-89
2023/05/23 12:39:34;;;;;;;9.02;6.78;;;22.40;99.90;;;;;;6049982;23;20331;-87
2023/05/23 12:42:51;;;;;;;7.47;6.68;;;22.60;1.00;;;;;;6049640;23;20038;-86
2023/05/23 12:46:32;;;;;;;;;;;;;;;;;;;;;
2023/05/23 12:50:05;;;;;;;7.78;6.00;;;23.20;99.90;;;;;;6009533;23;20016;-87
2023/05/23 13:05:58;;;;;;;;;;;;;;;;;;;;;
2023/05/23 13:10:16;;;;;;;4.68;4.15;;;28.30;99.90;;;;;;5845342;24;20159;-85
2023/05/23 13:13:26;;;;;;;5.80;4.10;;;26.40;99.90;;;;;;5801084;24;20015;-90
2023/05/23 13:17:10;;;;;;;;;;;;;;;;;;;;;
2023/05/23 14:13:39;;;;;;;8.23;4.63;;;20.50;99.90;;;;;;5488231;22;15089410;-86
2023/05/23 14:25:16;;;;;;;5.80;3.90;;;21.70;99.90;;;;;;6046434;23;20019;-89
2023/05/23 14:28:03;;;;;;;3.92;3.53;;;22.10;99.90;;;;;;6046572;23;20119;-91
2023/05/23 14:30:51;;;;;;;5.55;4.03;;;21.70;99.90;;;;;;6062858;23;20117;-90
2023/05/23 14:33:50;;;;;;;5.63;3.95;;;21.10;99.90;;;;;;6132088;23;20112;-87
2023/05/23 14:37:34;;;;;;;;;;;21.10;99.90;;;;;;6131350;23;20029;-90
2023/05/23 14:40:15;;;;;;;4.25;3.78;;;21.00;99.90;;;;;;6127103;23;19932;-89
2023/05/23 14:43:04;;;;;;;5.30;3.75;;;20.90;99.90;;;;;;6128180;23;20072;-85
2023/05/23 14:45:52;;;;;;;4.47;3.65;;;21.00;99.90;;;;;;6127036;23;20038;-88
2023/05/23 14:48:40;;;;;;;4.68;3.33;;;22.00;99.90;;;;;;6123012;23;20572;-85
2023/05/23 14:51:28;;;;;;;5.15;3.42;;;22.80;99.90;;;;;;6121923;23;20037;-84
2023/05/23 14:54:35;;;;;;;4.18;3.70;;;23.10;99.90;;;;;;6123151;23;20037;-85
2023/05/23 14:57:25;;;;;;;3.70;3.40;;;23.30;99.90;;;;;;6124999;23;20037;-88
2023/05/23 15:00:15;;;;;;;3.88;3.30;;;24.80;99.90;;;;;;6127119;23;20676;-89
2023/05/23 15:03:03;;;;;;;3.45;3.15;;;25.00;99.90;;;;;;6127269;23;20036;-92
2023/05/23 15:05:58;;;;;;;4.35;3.40;;;24.70;99.90;;;;;;6128830;23;20022;-90
2023/05/23 15:08:52;;;;;;;4.40;3.03;;;24.60;99.90;;;;;;6125993;23;20037;-90
2023/05/23 15:11:44;;;;;;;4.05;2.60;;;24.90;99.90;;;;;;6135786;23;20035;-90
2023/05/23 15:14:34;;;;;;;2.65;2.45;;;24.80;99.90;;;;;;6162856;23;20104;-88
2023/05/23 15:17:25;;;;;;;3.38;3.08;;;25.60;99.90;;;;;;6165187;23;20025;-89
2023/05/23 15:20:18;;;;;;;3.75;3.00;;;26.80;99.90;;;;;;6169593;23;20032;-90
2023/05/23 15:23:05;;;;;;;4.88;3.33;;;27.30;99.90;;;;;;6188626;23;20028;-88
2023/05/23 15:25:54;;;;;;;4.25;3.25;;;27.30;99.90;;;;;;6167429;23;20032;-90
2023/05/23 15:28:46;;;;;;;6.00;3.63;;;27.40;99.90;;;;;;6166350;23;20021;-90
2023/05/23 15:31:34;;;;;;;4.85;2.95;;;26.80;99.90;;;;;;6165093;23;20036;-89
2023/05/23 15:34:21;;;;;;;4.55;2.97;;;26.30;99.90;;;;;;6166140;23;20107;-87
2023/05/23 15:37:10;;;;;;;3.25;2.90;;;26.10;99.90;;;;;;6185304;23;20035;-88
2023/05/23 15:39:58;;;;;;;3.45;3.15;;;25.60;99.90;;;;;;6160763;23;20162;-87
2023/05/23 15:42:49;;;;;;;3.13;2.67;;;25.80;99.90;;;;;;6185451;23;20021;-85
2023/05/23 15:45:38;;;;;;;4.75;3.20;;;26.40;99.90;;;;;;6167530;23;20021;-91
2023/05/23 15:48:26;;;;;;;4.13;3.08;;;26.60;99.90;;;;;;6165059;23;20025;-87
2023/05/23 15:51:16;;;;;;;3.90;3.20;;;26.80;99.90;;;;;;6164956;23;20029;-86
2023/05/23 15:54:04;;;;;;;4.15;2.75;;;25.90;99.90;;;;;;6185459;23;20164;-85
2023/05/23 15:56:52;;;;;;;3.65;3.13;;;25.10;99.90;;;;;;6185993;23;20037;-87
2023/05/23 15:59:51;;;;;;;3.63;2.92;;;24.40;99.90;;;;;;6164847;23;20029;-88
2023/05/23 16:02:38;;;;;;;3.90;3.10;;;23.70;99.90;;;;;;6164524;23;20021;-85
2023/05/23 16:05:26;;;;;;;4.82;3.92;;;23.00;99.90;;;;;;6187105;23;20076;-87
2023/05/23 16:08:16;;;;;;;4.65;3.50;;;22.60;99.90;;;;;;6165631;23;20355;-88
2023/05/23 16:11:13;;;;;;;6.30;3.92;;;22.60;99.90;;;;;;6167002;23;20060;-85
2023/05/23 16:14:01;;;;;;;5.80;3.70;;;22.60;99.90;;;;;;6161641;23;20036;-92
2023/05/23 16:16:48;;;;;;;4.65;4.15;;;22.60;99.90;;;;;;6165208;23;20454;-89
2023/05/23 16:19:36;;;;;;;6.32;3.90;;;22.30;99.90;;;;;;6187418;23;20025;-87
2023/05/23 16:22:25;;;;;;;6.10;3.85;;;21.90;99.90;;;;;;6166366;23;20104;-89
2023/05/23 16:25:35;;;;;;;5.95;4.50;;;21.80;99.90;;;;;;6188230;23;20029;-90
2023/05/23 16:28:27;;;;;;;6.57;4.55;;;21.40;99.90;;;;;;6172558;23;20021;-90
2023/05/23 16:31:15;;;;;;;7.50;5.05;;;21.20;99.90;;;;;;6164969;23;20053;-89
2023/05/23 16:34:03;;;;;;;5.60;5.00;;;21.00;99.90;;;;;;6158912;23;20025;-86
2023/05/23 16:36:50;;;;;;;8.30;4.65;;;21.00;99.90;;;;;;6181507;23;20029;-86
2023/05/23 16:39:38;;;;;;;9.18;5.13;;;20.80;99.90;;;;;;6163976;23;20040;-87
2023/05/23 16:42:26;;;;;;;7.00;5.20;;;20.50;99.90;;;;;;6184860;23;20056;-87
2023/05/23 16:45:13;;;;;;;9.82;5.50;;;20.10;99.90;;;;;;6183449;23;20025;-87
2023/05/23 16:48:05;;;;;;;9.45;5.65;;;19.90;99.90;;;;;;6160541;23;20052;-87
2023/05/23 16:50:56;;;;;;;7.95;6.70;;;19.60;99.90;;;;;;6161039;23;20017;-88
2023/05/23 16:53:50;;;;;;;10.50;8.05;;;19.20;99.90;;;;;;6162201;23;20050;-88
2023/05/23 16:56:41;;;;;;;15.65;7.95;;;19.20;99.90;;;;;;6161353;23;20025;-90
2023/05/23 16:59:30;;;;;;;11.80;7.80;;;19.20;99.90;;;;;;6163012;23;20043;-90
2023/05/23 17:02:18;;;;;;;13.85;7.55;;;19.10;99.90;;;;;;6183247;23;20024;-89
2023/05/23 17:05:07;;;;;;;10.48;7.90;;;19.10;99.90;;;;;;6181462;23;20039;-87
2023/05/23 17:08:03;;;;;;;10.82;7.82;;;18.90;99.90;;;;;;6162211;23;20053;-87
2023/05/23 17:11:09;;;;;;;15.70;8.35;;;18.60;99.90;;;;;;6144053;23;20021;-87
2023/05/23 17:13:59;;;;;;;12.63;9.13;;;18.30;99.90;;;;;;6165449;23;20025;-87
2023/05/23 17:16:51;;;;;;;12.07;9.85;;;18.00;99.90;;;;;;6162236;23;20378;-86
2023/05/23 17:19:39;;;;;;;15.68;9.73;;;17.90;99.90;;;;;;6184974;23;20029;-86
2023/05/23 17:22:27;;;;;;;12.65;9.73;;;17.70;99.90;;;;;;6185083;23;20032;-87
2023/05/23 17:25:18;;;;;;;13.88;10.57;;;17.60;99.90;;;;;;6163361;23;20036;-88
2023/05/23 17:28:15;;;;;;;13.27;10.18;;;17.40;99.90;;;;;;6163197;23;20029;-85
2023/05/23 17:31:09;;;;;;;14.98;9.93;;;17.30;99.90;;;;;;6164079;23;20421;-84
2023/05/23 17:33:57;;;;;;;17.58;10.55;;;17.20;99.90;;;;;;6165458;23;20418;-85
2023/05/23 17:36:51;;;;;;;13.18;9.82;;;17.10;99.90;;;;;;6166390;23;20072;-86
2023/05/23 17:39:49;;;;;;;;;;;17.00;1.00;;;;;;6146005;23;20028;-87
2023/05/23 17:42:42;;;;;;;12.73;9.27;;;16.90;99.90;;;;;;6144407;23;19947;-87
2023/05/23 17:45:30;;;;;;;12.65;8.77;;;16.80;99.90;;;;;;6162535;23;20028;-87
2023/05/23 17:48:18;;;;;;;14.73;8.93;;;16.60;99.90;;;;;;6163520;23;20114;-91
2023/05/23 17:51:10;;;;;;;9.95;8.32;;;16.60;99.90;;;;;;6145737;23;20088;-89
2023/05/23 17:53:57;;;;;;;10.80;8.93;;;16.40;99.90;;;;;;6163278;23;20028;-86
2023/05/23 17:56:46;;;;;;;10.55;8.57;;;16.40;99.90;;;;;;6163158;23;20032;-88
2023/05/23 17:59:34;;;;;;;11.73;8.93;;;16.30;1.00;;;;;;6162365;23;20043;-88
2023/05/23 18:02:22;;;;;;;11.75;8.40;;;16.10;99.90;;;;;;6163647;23;20071;-88
2023/05/23 18:06:00;;;;;;;9.80;7.93;;;16.10;99.90;;;;;;6179291;23;20028;-88
2023/05/23 18:08:48;;;;;;;12.23;7.18;;;16.00;99.90;;;;;;6167107;23;20021;-88
2023/05/23 18:11:35;;;;;;;10.50;7.53;;;15.90;99.90;;;;;;6167221;23;20440;-86
2023/05/23 18:14:24;;;;;;;11.65;8.30;;;15.90;99.90;;;;;;6192253;23;20531;-89
2023/05/23 18:17:12;;;;;;;11.10;7.63;;;15.70;99.90;;;;;;6170428;23;20547;-87
2023/05/23 18:19:59;;;;;;;8.52;7.20;;;15.60;99.90;;;;;;6167279;23;20057;-87
2023/05/23 18:22:52;;;;;;;9.77;7.20;;;15.50;99.90;;;;;;6190338;23;20035;-88
2023/05/23 18:25:40;;;;;;;9.50;7.28;;;15.30;99.90;;;;;;6149167;23;20052;-85
2023/05/23 18:28:32;;;;;;;11.18;7.63;;;15.20;1.00;;;;;;6191338;23;20606;-86
2023/05/23 18:31:20;;;;;;;9.13;7.55;;;15.10;1.00;;;;;;6163302;23;20044;-84
2023/05/23 18:34:08;;;;;;;13.77;8.13;;;15.00;1.00;;;;;;6186986;23;20531;-87
2023/05/23 18:36:57;;;;;;;13.63;8.48;;;14.80;1.00;;;;;;6184686;23;20032;-85
2023/05/23 18:39:44;;;;;;;12.18;8.70;;;14.80;1.00;;;;;;6186947;23;20080;-85
2023/05/23 18:42:32;;;;;;;13.73;9.52;;;14.80;1.00;;;;;;6165099;23;20401;-89
2023/05/23 18:45:20;;;;;;;15.75;9.68;;;14.70;1.00;;;;;;6185101;23;20084;-86
2023/05/23 18:48:08;;;;;;;13.68;9.77;;;14.60;1.00;;;;;;6165282;23;20025;-87
2023/05/23 18:50:55;;;;;;;17.67;10.50;;;14.50;1.00;;;;;;6187978;23;20029;-87
2023/05/23 18:53:43;;;;;;;13.43;10.27;;;14.40;1.00;;;;;;6187848;23;20035;-86
2023/05/23 18:56:31;;;;;;;16.50;10.43;;;14.30;10.30;;;;;;6166046;23;20398;-89
2023/05/23 18:59:19;;;;;;;13.93;9.65;;;14.30;24.50;;;;;;6165412;23;20025;-86
2023/05/23 19:02:07;;;;;;;14.15;10.35;;;14.20;30.00;;;;;;6165323;23;20032;-89
2023/05/23 19:04:56;;;;;;;15.38;10.10;;;14.10;60.30;;;;;;6165181;23;20028;-87
2023/05/23 19:07:44;;;;;;;18.65;11.57;;;14.00;89.30;;;;;;6164657;23;20029;-89
2023/05/23 19:10:33;;;;;;;16.73;12.05;;;13.90;99.90;;;;;;6186586;23;20084;-88
2023/05/23 19:13:22;;;;;;;18.23;12.13;;;13.90;99.90;;;;;;6186019;23;20029;-89
2023/05/23 19:16:10;;;;;;;17.60;11.77;;;13.90;99.90;;;;;;6164436;23;20412;-85
2023/05/23 19:18:58;;;;;;;18.52;13.05;;;13.80;99.90;;;;;;6184291;23;20047;-87
2023/05/23 19:21:46;;;;;;;19.83;13.02;;;13.70;99.90;;;;;;6185065;23;20025;-85
2023/05/23 19:24:33;;;;;;;23.45;13.10;;;13.70;99.90;;;;;;6163398;23;20028;-85